地図

経路データ

SID SEASON NUMBER BASIN SUBBASIN NAME ISO_TIME NATURE LAT LON WMO_WIND WMO_PRES WMO_AGENCY TRACK_TYPE DIST2LAND LANDFALL IFLAG USA_AGENCY USA_ATCF_ID USA_LAT USA_LON USA_RECORD USA_STATUS USA_WIND USA_PRES USA_SSHS USA_R34_NE USA_R34_SE USA_R34_SW USA_R34_NW USA_R50_NE USA_R50_SE USA_R50_SW USA_R50_NW USA_R64_NE USA_R64_SE USA_R64_SW USA_R64_NW USA_POCI USA_ROCI USA_RMW USA_EYE TOKYO_LAT TOKYO_LON TOKYO_GRADE TOKYO_WIND TOKYO_PRES TOKYO_R50_DIR TOKYO_R50_LONG TOKYO_R50_SHORT TOKYO_R30_DIR TOKYO_R30_LONG TOKYO_R30_SHORT TOKYO_LAND CMA_LAT CMA_LON CMA_CAT CMA_WIND CMA_PRES HKO_LAT HKO_LON HKO_CAT HKO_WIND HKO_PRES NEWDELHI_LAT NEWDELHI_LON NEWDELHI_GRADE NEWDELHI_WIND NEWDELHI_PRES NEWDELHI_CI NEWDELHI_DP NEWDELHI_POCI REUNION_LAT REUNION_LON REUNION_TYPE REUNION_WIND REUNION_PRES REUNION_TNUM REUNION_CI REUNION_RMW REUNION_R34_NE REUNION_R34_SE REUNION_R34_SW REUNION_R34_NW REUNION_R50_NE REUNION_R50_SE REUNION_R50_SW REUNION_R50_NW REUNION_R64_NE REUNION_R64_SE REUNION_R64_SW REUNION_R64_NW BOM_LAT BOM_LON BOM_TYPE BOM_WIND BOM_PRES BOM_TNUM BOM_CI BOM_RMW BOM_R34_NE BOM_R34_SE BOM_R34_SW BOM_R34_NW BOM_R50_NE BOM_R50_SE BOM_R50_SW BOM_R50_NW BOM_R64_NE BOM_R64_SE BOM_R64_SW BOM_R64_NW BOM_ROCI BOM_POCI BOM_EYE BOM_POS_METHOD BOM_PRES_METHOD NADI_LAT NADI_LON NADI_CAT NADI_WIND NADI_PRES WELLINGTON_LAT WELLINGTON_LON WELLINGTON_WIND WELLINGTON_PRES DS824_LAT DS824_LON DS824_STAGE DS824_WIND DS824_PRES TD9636_LAT TD9636_LON TD9636_STAGE TD9636_WIND TD9636_PRES TD9635_LAT TD9635_LON TD9635_WIND TD9635_PRES TD9635_ROCI NEUMANN_LAT NEUMANN_LON NEUMANN_CLASS NEUMANN_WIND NEUMANN_PRES MLC_LAT MLC_LON MLC_CLASS MLC_WIND MLC_PRES USA_GUST BOM_GUST BOM_GUST_PER REUNION_GUST REUNION_GUST_PER USA_SEAHGT USA_SEARAD_NE USA_SEARAD_SE USA_SEARAD_SW USA_SEARAD_NW STORM_SPEED STORM_DIR
1964336S10135 1965 114 SI WA FLORA 1964-11-30 17:00:00 NR -10.3000 134.700 main 194 179 __________O___ -1 -10.3000 134.700 1 5 7 223
1964336S10135 1965 114 SI WA FLORA 1964-11-30 18:00:00 TS -10.3825 134.622 main 179 154 O________OP___ jtwc_sh SH041965 -10.4000 134.600 5 -1 -10.4000 134.600 TC 5 -10.3650 134.643 1 6 6 218
1964336S10135 1965 114 SI WA FLORA 1964-11-30 21:00:00 TS -10.5931 134.466 main 154 134 P________PP___ SH041965 -10.6200 134.460 12 -1 -10.6200 134.460 TC 12 -10.5571 134.473 1 11 5 217
1964336S10135 1965 114 SI WA FLORA 1964-11-30 23:30:00 TS -10.7442 134.344 1002 bom main 134 124 P_____O__PP___ SH041965 -10.7745 134.329 18 -1 -10.7000 134.500 1002 -10.7745 134.329 TC 18 -10.7099 134.329 1 15 4 217
1964336S10135 1965 114 SI WA FLORA 1964-12-01 00:00:00 TS -10.7612 134.340 main 124 109 O_____P__OP_O_ jtwc_sh SH041965 -10.8000 134.300 20 -1 -10.7113 134.419 1002 -10.8000 134.300 TC 20 -10.7392 134.300 1 16 -10.7000 134.500 TC 25 1002 4 235
1964336S10135 1965 114 SI WA FLORA 1964-12-01 02:30:00 TS -10.8649 134.166 1002 bom main 109 105 P_____O__PP_P_ SH041965 -10.8993 134.141 22 -1 -10.8000 134.100 1002 -10.8993 134.141 TC 22 -10.8778 134.152 1 20 -10.8320 134.280 TC 25 1002 5 238
1964336S10135 1965 114 SI WA FLORA 1964-12-01 03:00:00 TS -10.8819 134.139 main 105 92 P_____P__PP_P_ SH041965 -10.9150 134.107 22 -1 -10.8302 134.069 1002 -10.9150 134.107 TC 22 -10.9037 134.122 1 21 -10.8576 134.238 TC 25 1002 4 234
1964336S10135 1965 114 SI WA FLORA 1964-12-01 05:00:00 TS -10.9706 134.017 main 92 92 P_____P__PO_P_ SH041965 -10.9719 133.969 24 -1 -10.9697 134.014 1002 -10.9719 133.969 TC 24 -11.0000 134.000 1 25 -10.9551 134.075 TC 25 1002 4 234
1964336S10135 1965 114 SI WA FLORA 1964-12-01 05:30:00 TS -10.9916 133.985 1002 bom main 92 92 P_____O__PP_P_ SH041965 -10.9858 133.935 24 -1 -11.0000 134.000 1002 -10.9858 133.935 TC 24 -11.0221 133.969 1 25 -10.9779 134.037 TC 25 1002 5 239
1964336S10135 1965 114 SI WA FLORA 1964-12-01 06:00:00 TS -11.0110 133.952 main 92 78 O_____P__OP_O_ jtwc_sh SH041965 -11.0000 133.900 25 -1 -11.0224 133.972 1002 -11.0000 133.900 TC 25 -11.0434 133.938 1 25 -11.0000 134.000 TC 25 1002 5 241
1964336S10135 1965 114 SI WA FLORA 1964-12-01 08:30:00 TS -11.1003 133.785 1002 bom main 78 78 P_____O__PP_P_ SH041965 -11.0833 133.733 27 -1 -11.1000 133.800 1002 -11.0833 133.733 TC 27 -11.1395 133.779 1 26 -11.0979 133.832 TC 25 1001 4 241
1964336S10135 1965 114 SI WA FLORA 1964-12-01 09:00:00 TS -11.1173 133.754 main 78 67 P_____P__PP_P_ SH041965 -11.1000 133.700 27 -1 -11.1167 133.775 1001 -11.1000 133.700 TC 27 -11.1570 133.747 1 26 -11.1150 133.800 TC 25 1001 4 244
1964336S10135 1965 114 SI WA FLORA 1964-12-01 11:30:00 TS -11.1967 133.587 1001 bom main 68 68 P_____O__PP_P_ SH041965 -11.1833 133.533 29 -1 -11.2000 133.600 1001 -11.1833 133.533 TC 29 -11.2379 133.581 1 28 -11.1879 133.635 TC 25 1001 5 245
1964336S10135 1965 114 SI WA FLORA 1964-12-01 12:00:00 TS -11.2121 133.545 main 62 39 O_____P__OP_O_ jtwc_sh SH041965 -11.2000 133.500 30 -1 -11.2193 133.521 1000 -11.2000 133.500 TC 30 -11.2531 133.548 1 28 -11.2000 133.600 TC 25 1001 5 252
1964336S10135 1965 114 SI WA FLORA 1964-12-01 14:30:00 TS -11.2799 133.322 1000 bom main 39 39 P_____O__PP_P_ SH041965 -11.2833 133.333 30 -1 -11.3000 133.100 1000 -11.2833 133.333 TC 30 -11.3267 133.376 1 29 -11.2430 133.393 TC 27 1000 5 253
1964336S10135 1965 114 SI WA FLORA 1964-12-01 15:00:00 TS -11.2907 133.286 main 39 31 P_____P__PP_P_ SH041965 -11.3000 133.300 30 -1 -11.3031 133.077 1000 -11.3000 133.300 TC 30 -11.3412 133.342 1 29 -11.2500 133.350 TC 27 1000 4 251
1964336S10135 1965 114 SI WA FLORA 1964-12-01 17:00:00 TS -11.3318 133.165 main 31 24 P_____P__PO_P_ SH041965 -11.3667 133.167 30 -1 -11.2969 133.098 1000 -11.3667 133.167 TC 30 -11.4000 133.200 1 31 -11.2803 133.180 TC 29 1000 4 250
1964336S10135 1965 114 SI WA FLORA 1964-12-01 17:30:00 TS -11.3436 133.135 1000 bom main 24 15 P_____O__PP_P_ SH041965 -11.3833 133.133 30 -1 -11.3000 133.100 1000 -11.3833 133.133 TC 30 -11.4161 133.163 1 30 -11.2895 133.140 TC 29 1000 4 248
1964336S10135 1965 114 SI WA FLORA 1964-12-01 18:00:00 TS -11.3572 133.100 main 15 0 O_____P__OP_O_ jtwc_sh SH041965 -11.4000 133.100 30 -1 -11.3110 133.078 1000 -11.4000 133.100 TC 30 -11.4321 133.125 1 30 -11.3000 133.100 TC 30 1000 4 245
1964336S10135 1965 114 SI WA FLORA 1964-12-01 20:30:00 TS -11.4360 132.929 1000 bom main 0 0 P_____O__PP_P_ SH041965 -11.4833 132.940 27 -1 -11.4000 132.900 1000 -11.4833 132.940 TC 27 -11.5119 132.931 1 29 -11.3687 132.932 TC 30 1000 4 245
1964336S10135 1965 114 SI WA FLORA 1964-12-01 21:00:00 TS -11.4524 132.896 main 0 0 P_____P__PP_P_ SH041965 -11.5000 132.907 27 -1 -11.4167 132.867 1000 -11.5000 132.907 TC 27 -11.5279 132.892 1 29 -11.3850 132.900 TC 30 1000 5 243
1964336S10135 1965 114 SI WA FLORA 1964-12-01 23:30:00 TS -11.5388 132.723 1000 bom main 0 0 P_____O__PP_P_ SH041965 -11.5833 132.737 25 -1 -11.5000 132.700 1000 -11.5833 132.737 TC 25 -11.6089 132.696 1 27 -11.4787 132.735 TC 30 1000 5 243
1964336S10135 1965 114 SI WA FLORA 1964-12-02 00:00:00 TS -11.5566 132.688 main 0 0 O_____P__OP_O_ jtwc_sh SH041965 -11.6000 132.700 25 -1 -11.5140 132.669 1000 -11.6000 132.700 TC 25 -11.6254 132.658 1 27 -11.5000 132.700 TC 30 1000 5 245
1964336S10135 1965 114 SI WA FLORA 1964-12-02 02:30:00 TS -11.6492 132.486 1000 bom main 10 10 P_____O__PP_P_ SH041965 -11.6767 132.486 25 -1 -11.6000 132.500 1000 -11.6767 132.486 TC 25 -11.7102 132.471 1 26 -11.6171 132.480 TC 32 999 5 245
1964336S10135 1965 114 SI WA FLORA 1964-12-02 03:00:00 TS -11.6704 132.442 main 24 24 P_____P__PP_P_ SH041965 -11.6925 132.442 25 -1 -11.6276 132.450 999 -11.6925 132.442 TC 25 -11.7277 132.435 1 26 -11.6425 132.435 TC 32 999 6 241
1964336S10135 1965 114 SI WA FLORA 1964-12-02 05:00:00 TS -11.7631 132.273 main 32 32 P_____P__PO_P_ SH041965 -11.7610 132.275 25 -1 -11.7641 132.241 998 -11.7610 132.275 TC 25 -11.8000 132.300 1 25 -11.7474 132.269 TC 34 998 6 240
1964336S10135 1965 114 SI WA FLORA 1964-12-02 05:30:00 TS -11.7869 132.235 998 bom main 33 33 P_____O__PP_P_ SH041965 -11.7800 132.236 25 -1 -11.8000 132.200 998 -11.7800 132.236 TC 25 -11.8155 132.264 1 25 -11.7738 132.233 TC 34 998 5 233
1964336S10135 1965 114 SI WA FLORA 1964-12-02 06:00:00 TS -11.8111 132.200 main 33 33 O_____P__OP_O_ jtwc_sh SH041965 -11.8000 132.200 25 -1 -11.8359 132.172 997 -11.8000 132.200 TC 25 -11.8309 132.228 1 25 -11.8000 132.200 TC 35 998 4 229
1964336S10135 1965 114 SI WA FLORA 1964-12-02 08:30:00 TS -11.9300 132.064 997 bom main 44 44 P_____O__PP_P_ SH041965 -11.9170 132.052 25 -1 -12.0000 132.100 997 -11.9170 132.052 TC 25 -11.9096 132.055 1 25 -11.9183 132.106 TC 37 996 4 228
1964336S10135 1965 114 SI WA FLORA 1964-12-02 09:00:00 TS -11.9524 132.041 main 33 22 P_____P__PP_P_ SH041965 -11.9425 132.027 25 -1 -12.0186 132.094 996 -11.9425 132.027 TC 25 -11.9262 132.022 1 25 -11.9424 132.092 TC 37 996 4 224
1964336S10135 1965 114 SI WA FLORA 1964-12-02 11:30:00 TS -12.0672 131.928 995 bom main 22 22 P_____O__PP_P_ SH041965 -12.0738 131.919 25 -1 -12.1000 132.000 995 -12.0738 131.919 TC 25 -12.0170 131.876 1 25 -12.0716 132.020 TC 39 995 4 226
1964336S10135 1965 114 SI WA FLORA 1964-12-02 12:00:00 TS -12.0926 131.898 main 22 22 O_____P__OP_O_ jtwc_sh SH041965 -12.1000 131.900 25 -1 -12.1247 131.929 995 -12.1000 131.900 TC 25 -12.0372 131.851 1 25 -12.1000 132.000 TC 40 995 5 229
1964336S10135 1965 114 SI WA FLORA 1964-12-02 13:00:00 TS -12.1450 131.834 995 bom main 22 11 P_____O__PP_P_ SH041965 -12.1421 131.853 25 -1 -12.2000 131.800 995 -12.1421 131.853 TC 25 -12.0805 131.805 1 25 -12.1557 131.934 TC 39 995 5 218
1964336S10135 1965 114 SI WA FLORA 1964-12-02 14:30:00 TS -12.2416 131.774 996 bom main 11 0 P_____O__PP_P_ SH041965 -12.2051 131.789 25 -1 -12.4000 131.800 996 -12.2051 131.789 TC 25 -12.1532 131.750 1 25 -12.2455 131.823 TC 37 995 4 212
1964336S10135 1965 114 SI WA FLORA 1964-12-02 15:00:00 TS -12.2703 131.752 main 0 0 P_____P__PP_P_ SH041965 -12.2275 131.770 25 -1 -12.4358 131.778 996 -12.2275 131.770 TC 25 -12.1798 131.735 1 25 -12.2776 131.785 TC 37 996 4 214
1964336S10135 1965 114 SI WA FLORA 1964-12-02 17:00:00 TS -12.3810 131.671 main 0 0 P_____P__PO_P_ SH041965 -12.3329 131.714 25 -1 -12.4831 131.630 996 -12.3329 131.714 TC 25 -12.3000 131.700 1 25 -12.4193 131.649 TC 35 996 4 213
1964336S10135 1965 114 SI WA FLORA 1964-12-02 17:30:00 TS -12.4144 131.656 997 bom main 0 0 P_____O__PP_P_ SH041965 -12.3649 131.705 25 -1 -12.5000 131.600 997 -12.3649 131.705 TC 25 -12.3397 131.694 1 24 -12.4587 131.622 TC 35 996 5 0
1964336S10135 1965 114 SI WA FLORA 1964-12-02 18:00:00 TS -12.4533 131.646 main 0 0 O_____P__OP_O_ jtwc_sh SH041965 -12.4000 131.700 25 -1 -12.5386 131.589 997 -12.4000 131.700 TC 25 -12.3813 131.690 1 24 -12.5000 131.600 TC 35 997 6 190
1964336S10135 1965 114 SI WA FLORA 1964-12-02 20:30:00 TS -12.6984 131.626 998 bom main 0 0 P_____O__PP_P_ SH041965 -12.6393 131.698 22 -1 -12.8000 131.600 998 -12.6393 131.698 TC 22 -12.6130 131.702 1 22 -12.7472 131.522 TC 35 997 6 185
1964336S10135 1965 114 SI WA FLORA 1964-12-02 21:00:00 TS -12.7511 131.627 main 0 0 P_____P__PP_P_ SH041965 -12.6925 131.705 22 -1 -12.8552 131.595 998 -12.6925 131.705 TC 22 -12.6625 131.711 1 21 -12.7999 131.518 TC 35 997 6 170
1964336S10135 1965 114 SI WA FLORA 1964-12-02 23:30:00 TS -13.0051 131.681 998 bom main 0 0 P_____O__PP_P_ SH041965 -12.9530 131.778 20 -1 -13.1000 131.600 998 -12.9530 131.778 TC 20 -12.9153 131.783 1 19 -13.0542 131.572 TC 35 997 6 166
1964336S10135 1965 114 SI WA FLORA 1964-12-03 00:00:00 TS -13.0480 131.703 main 0 0 O_____P__OP_O_ jtwc_sh SH041965 -13.0000 131.800 20 -1 -13.1228 131.614 998 -13.0000 131.800 TC 20 -12.9655 131.803 1 19 -13.1000 131.600 TC 35 998 6 139
1964336S10135 1965 114 SI WA FLORA 1964-12-03 02:30:00 TS -13.2311 131.886 998 bom main 0 0 P_____O__PP_P_ SH041965 -13.1958 131.936 17 -1 -13.2000 131.800 998 -13.1958 131.936 TC 17 -13.2030 131.931 1 17 -13.2960 131.856 TC 35 998 6 134
1964336S10135 1965 114 SI WA FLORA 1964-12-03 03:00:00 TS -13.2684 131.936 main 0 0 P_____P__PP_P_ SH041965 -13.2300 131.970 17 -1 -13.2439 131.874 998 -13.2300 131.970 TC 17 -13.2465 131.961 1 16 -13.3302 131.920 TC 35 998 8 124
1964336S10135 1965 114 SI WA FLORA 1964-12-03 05:00:00 TS -13.4094 132.155 main 0 0 P_____P__PO_P_ SH041965 -13.3500 132.120 15 -1 -13.4562 132.226 998 -13.3500 132.120 TC 15 -13.4000 132.100 1 15 -13.4501 132.182 TC 35 998 8 123
1964336S10135 1965 114 SI WA FLORA 1964-12-03 05:30:00 TS -13.4382 132.206 998 bom main 0 0 P_____O__PP_P_ SH041965 -13.3758 132.160 15 -1 -13.5000 132.300 998 -13.3758 132.160 TC 15 -13.4258 132.133 1 15 -13.4759 132.243 TC 35 998 7 119
1964336S10135 1965 114 SI WA FLORA 1964-12-03 06:00:00 TS -13.4629 132.253 main 0 0 O_____P__OP_O_ jtwc_sh SH041965 -13.4000 132.200 15 -1 -13.5281 132.351 998 -13.4000 132.200 TC 15 -13.4493 132.167 1 15 -13.5000 132.300 TC 35 998 5 119
1964336S10135 1965 114 SI WA FLORA 1964-12-03 08:30:00 TS -13.5604 132.435 998 bom main 0 0 P_____O__PP_P_ SH041965 -13.5058 132.387 15 -1 -13.6000 132.500 998 -13.5058 132.387 TC 15 -13.5390 132.365 1 16 -13.6058 132.484 TC 35 998 5 118
1964336S10135 1965 114 SI WA FLORA 1964-12-03 09:00:00 TS -13.5764 132.471 main 0 0 P_____P__PP_P_ SH041965 -13.5224 132.428 15 -1 -13.6167 132.531 998 -13.5224 132.428 TC 15 -13.5523 132.410 1 16 -13.6224 132.515 TC 35 998 5 110
1964336S10135 1965 114 SI WA FLORA 1964-12-03 11:30:00 TS -13.6433 132.665 998 bom main 0 0 P_____O__PP_P_ SH041965 -13.5891 132.650 15 -1 -13.7000 132.700 998 -13.5891 132.650 TC 15 -13.6036 132.655 1 17 -13.6891 132.667 TC 35 998 5 109
1964336S10135 1965 114 SI WA FLORA 1964-12-03 12:00:00 TS -13.6552 132.709 main 0 0 O_____P__OP_O_ jtwc_sh SH041965 -13.6000 132.700 15 -1 -13.7193 132.747 998 -13.6000 132.700 TC 15 -13.6118 132.708 1 17 -13.7000 132.700 TC 35 998 6 104
1964336S10135 1965 114 SI WA FLORA 1964-12-03 14:30:00 TS -13.7082 132.942 998 bom main 0 0 P_____O__PP_P_ SH041965 -13.6430 132.969 17 -1 -13.8000 133.000 998 -13.6430 132.969 TC 17 -13.6510 132.991 1 18 -13.7561 132.861 TC 35 998 6 103
1964336S10135 1965 114 SI WA FLORA 1964-12-03 15:00:00 TS -13.7158 132.988 main 0 0 P_____P__PP_P_ SH041965 -13.6500 133.028 17 -1 -13.8057 133.029 998 -13.6500 133.028 TC 17 -13.6594 133.051 1 18 -13.7648 132.898 TC 35 998 6 98
1964336S10135 1965 114 SI WA FLORA 1964-12-03 17:00:00 TS -13.7410 133.192 main 0 0 P_____P__PO_P_ SH041965 -13.6802 133.272 19 -1 -13.8026 133.146 998 -13.6802 133.272 TC 19 -13.7000 133.300 1 19 -13.7915 133.080 TC 35 998 6 97
1964336S10135 1965 114 SI WA FLORA 1964-12-03 17:30:00 TS -13.7475 133.251 998 bom main 0 0 P_____O__PP_P_ SH041965 -13.6895 133.336 19 -1 -13.8000 133.200 998 -13.6895 133.336 TC 19 -13.7137 133.359 1 19 -13.7962 133.137 TC 35 998 7 97
1964336S10135 1965 114 SI WA FLORA 1964-12-03 18:00:00 TS -13.7546 133.316 main 0 0 O_____P__OP_O_ jtwc_sh SH041965 -13.7000 133.400 20 -1 -13.8000 133.280 998 -13.7000 133.400 TC 20 -13.7275 133.419 1 20 -13.8000 133.200 TC 35 998 9 94
1964336S10135 1965 114 SI WA FLORA 1964-12-03 20:30:00 TS -13.7794 133.706 998 bom main 0 0 P_____O__PP_P_ SH041965 -13.7620 133.712 24 -1 -13.8000 133.800 998 -13.7620 133.712 TC 24 -13.8017 133.734 1 24 -13.7752 133.637 TC 35 998 9 94
1964336S10135 1965 114 SI WA FLORA 1964-12-03 21:00:00 TS -13.7847 133.786 main 0 0 P_____P__PP_P_ SH041965 -13.7774 133.778 25 -1 -13.7947 133.889 998 -13.7774 133.778 TC 25 -13.8180 133.801 1 24 -13.7703 133.735 TC 35 998 9 97
1964336S10135 1965 114 SI WA FLORA 1964-12-03 23:30:00 TS -13.8382 134.188 998 bom main 0 0 P_____O__PP_P_ SH041965 -13.8754 134.125 29 -1 -13.8000 134.300 998 -13.8754 134.125 TC 29 -13.9095 134.147 1 28 -13.7845 134.214 TC 35 998 9 99
1964336S10135 1965 114 SI WA FLORA 1964-12-04 00:00:00 TS -13.8583 134.268 main 0 0 O_____P__OP_O_ jtwc_sh SH041965 -13.9000 134.200 30 -1 -13.8193 134.391 998 -13.9000 134.200 TC 30 -13.9302 134.220 1 29 -13.8000 134.300 TC 35 998 9 112
1964336S10135 1965 114 SI WA FLORA 1964-12-04 02:30:00 TS -14.0101 134.633 998 bom main 0 0 P_____O__PP_P_ SH041965 -14.0441 134.601 32 -1 -14.0000 134.800 998 -14.0441 134.601 TC 32 -14.0495 134.597 1 33 -13.9615 134.591 TC 35 998 9 114
1964336S10135 1965 114 SI WA FLORA 1964-12-04 03:00:00 TS -14.0476 134.699 main 0 0 P_____P__PP_P_ SH041965 -14.0775 134.685 32 -1 -14.0442 134.840 998 -14.0775 134.685 TC 32 -14.0769 134.676 1 33 -14.0046 134.643 TC 35 998 9 123
1964336S10135 1965 114 SI WA FLORA 1964-12-04 05:00:00 TS -14.2146 134.959 main 0 0 P_____P__PO_P_ SH041965 -14.2224 135.028 34 0 -14.2473 134.952 998 -14.2224 135.028 TC 34 -14.2000 135.000 2 37 -14.1976 134.865 TC 35 998 9 123
1964336S10135 1965 114 SP EA FLORA 1964-12-04 05:30:00 TS -14.2592 135.029 998 bom main 0 0 P_____O__PP_P_ SH041965 -14.2608 135.114 34 0 -14.3000 135.000 998 -14.2608 135.114 TC 34 -14.2361 135.079 2 36 -14.2487 134.930 TC 35 998 10 122
1964336S10135 1965 114 SP EA FLORA 1964-12-04 06:00:00 TS -14.3040 135.106 main 0 0 O_____P__OP_O_ jtwc_sh SH041965 -14.3000 135.200 35 0 -14.3500 135.077 997 -14.3000 135.200 TC 35 -14.2739 135.159 2 36 -14.3000 135.000 TC 35 998 11 118
1964336S10135 1965 114 SP EA FLORA 1964-12-04 08:30:00 TS -14.5259 135.539 996 bom main 0 0 P_____O__PP_P_ SH041965 -14.4936 135.604 35 0 -14.6000 135.600 996 -14.4936 135.604 TC 35 -14.4841 135.575 2 35 -14.5487 135.460 TC 37 996 11 118
1964336S10135 1965 114 SP EA FLORA 1964-12-04 09:00:00 TS -14.5724 135.628 main 10 10 P_____P__PP_P_ SH041965 -14.5348 135.685 35 0 -14.6507 135.695 995 -14.5348 135.685 TC 35 -14.5296 135.661 2 35 -14.6001 135.562 TC 37 996 12 118
1964336S10135 1965 114 SP EA FLORA 1964-12-04 12:00:00 TS -14.8599 136.182 main 49 49 O_____P__OP_O_ jtwc_sh SH041965 -14.8000 136.200 35 0 -14.9560 136.237 994 -14.8000 136.200 TC 35 -14.8172 136.202 2 33 -14.9000 136.200 TC 40 995 12 118
1964336S10135 1965 114 SP EA FLORA 1964-12-04 14:30:00 TS -15.1052 136.666 994 bom main 63 63 P_____O__PP_P_ SH041965 -15.0550 136.664 32 -1 -15.2000 136.700 994 -15.0550 136.664 TC 32 -15.0633 136.686 2 32 -15.1161 136.700 TC 40 994 13 117
1964336S10135 1965 114 SP EA FLORA 1964-12-04 15:00:00 TS -15.1538 136.767 main 64 64 P_____P__PP_P_ SH041965 -15.1073 136.763 32 -1 -15.2471 136.801 993 -15.1073 136.763 TC 32 -15.1118 136.786 2 32 -15.1573 136.800 TC 40 994 13 115
1964336S10135 1965 114 SP EA FLORA 1964-12-04 17:00:00 TS -15.3428 137.187 main 77 67 P_____P__PO_P_ SH041965 -15.3086 137.178 30 -1 -15.4287 137.223 993 -15.3086 137.178 TC 30 -15.3000 137.200 1 31 -15.3192 137.200 TC 40 994 14 114
1964336S10135 1965 114 SP EA FLORA 1964-12-04 18:00:00 TS -15.4312 137.407 main 70 64 O_____P__OP_O_ jtwc_sh SH041965 -15.4000 137.400 30 -1 -15.5152 137.443 993 -15.4000 137.400 TC 30 -15.3832 137.423 1 31 -15.4000 137.400 TC 40 994 14 110
1964336S10135 1965 114 SP EA FLORA 1964-12-04 21:00:00 TS -15.6701 138.103 main 70 70 P_____P__PP_P_ SH041965 -15.6076 138.143 32 -1 -15.7562 138.130 993 -15.6076 138.143 TC 32 -15.6223 138.129 1 33 -15.6647 137.985 TC 40 993 14 109
1964336S10135 1965 114 SP EA FLORA 1964-12-04 23:00:00 TS -15.8155 138.579 993 bom main 106 101 P_____O__PP_P_ SH041965 -15.7329 138.654 34 0 -15.9000 138.600 993 -15.7329 138.654 TC 34 -15.7739 138.614 1 35 -15.8279 138.389 TC 40 993 14 108
1964336S10135 1965 114 SP EA FLORA 1964-12-05 00:00:00 TS -15.8880 138.816 main 102 99 O_____P__OP_O_ jtwc_sh SH041965 -15.8000 138.900 35 0 -15.9805 138.841 992 -15.8000 138.900 TC 35 -15.8476 138.857 1 36 -15.9000 138.600 TC 40 993 14 107
1964336S10135 1965 114 SP EA FLORA 1964-12-05 03:00:00 TS -16.0941 139.518 main 104 104 P_____P__PP_P_ SH041965 -16.0498 139.580 37 0 -16.2075 139.578 992 -16.0498 139.580 TC 37 -16.0617 139.563 1 38 -16.0649 139.285 TC 40 993 14 107
1964336S10135 1965 114 SP EA FLORA 1964-12-05 05:00:00 TS -16.2224 139.972 main 123 115 P_____P__PO_P_ SH041965 -16.2197 140.000 39 0 -16.3347 140.069 992 -16.2197 140.000 TC 39 -16.2000 140.000 2 40 -16.1552 139.762 TC 40 993 13 106
1964336S10135 1965 114 SP EA FLORA 1964-12-05 06:00:00 TS -16.2790 140.191 main 115 53 O_____P__OP_O_ jtwc_sh SH041965 -16.3000 140.200 40 0 -16.3875 140.309 992 -16.3000 140.200 TC 40 -16.2433 140.198 2 42 -16.2000 140.000 TC 40 993 13 104
1964336S10135 1965 114 SP EA FLORA 1964-12-05 09:00:00 TS -16.4221 140.823 main 53 30 P_____P__PP_P_ SH041965 -16.4848 140.773 52 0 -16.4890 140.991 992 -16.4848 140.773 TC 52 -16.3698 140.753 2 51 -16.3201 140.738 TC 42 992 12 104
1964336S10135 1965 114 SP EA FLORA 1964-12-05 10:00:00 TS -16.4723 141.021 992 bom main 30 10 P_____O__PP_P_ SH041965 -16.5482 140.952 56 0 -16.5000 141.200 992 -16.5482 140.952 TC 56 -16.4236 140.927 2 53 -16.3685 140.973 TC 43 992 12 106
1964336S10135 1965 114 SP EA FLORA 1964-12-05 11:00:00 TS -16.5285 141.211 992 bom main 10 0 P_____O__PP_P_ SH041965 -16.6187 141.128 60 0 -16.5000 141.400 992 4 -16.6187 141.128 TC 60 -16.4897 141.098 2 56 -16.4272 141.195 TC 44 992 11 110
1964336S10135 1965 114 SP EA FLORA 1964-12-05 12:00:00 TS -16.6002 141.390 main 0 0 O_____P__OP_O_ jtwc_sh SH041965 -16.7000 141.300 65 1 -16.5296 141.570 992 -16.7000 141.300 TC 65 -16.5719 141.267 2 59 -16.5000 141.400 TC 45 992 11 122
1964336S10135 1965 114 SP EA FLORA 1964-12-05 14:00:00 TS -16.8239 141.700 994 bom main 0 0 P_____O__PO_P_ SH041965 -16.9474 141.635 61 0 -16.7000 141.800 994 -16.9474 141.635 TC 61 -16.8000 141.600 3 65 -16.7121 141.723 TC 43 993 11 131
1964336S10135 1965 114 SP EA FLORA 1964-12-05 15:00:00 TS -16.9586 141.827 main 0 0 P_____P__PP_P_ SH041965 -17.0798 141.800 60 0 -16.8302 141.784 994 -17.0798 141.800 TC 60 -16.9650 141.767 3 61 -16.8345 141.865 TC 42 993 11 137
1964336S10135 1965 114 SP EA FLORA 1964-12-05 16:00:00 TS -17.0992 141.976 bom main 0 0 P_____I__PP_P_ SH041965 -17.2055 141.964 58 0 -17.0000 141.900 994 -17.2055 141.964 TC 58 -17.1386 141.933 3 58 -16.9603 142.004 TC 41 993 13 130
1964336S10135 1965 114 SP EA FLORA 1964-12-05 17:00:00 TS -17.2358 142.174 995 bom main 0 0 P_____O__PO_P_ SH041965 -17.3153 142.130 56 0 -17.2000 142.300 995 -17.3153 142.130 TC 56 -17.3000 142.100 2 55 -17.0840 142.146 TC 40 994 13 125
1964336S10135 1965 114 SP EA FLORA 1964-12-05 18:00:00 TS -17.3473 142.347 main 0 0 O_____P__OP_O_ jtwc_sh SH041965 -17.4000 142.300 55 0 -17.3706 142.514 995 -17.4000 142.300 TC 55 -17.4130 142.267 2 53 -17.2000 142.300 TC 40 995 11 117
1964336S10135 1965 114 SP EA FLORA 1964-12-05 20:00:00 TS -17.4830 142.682 996 bom main 0 0 P_____O__PP_P_ SH041965 -17.4444 142.659 49 0 -17.6000 142.700 996 -17.4444 142.659 TC 49 -17.5478 142.605 2 49 -17.4207 142.692 TC 38 995 11 109
1964336S10135 1965 114 SP EA FLORA 1964-12-05 21:00:00 TS -17.5228 142.883 main 0 0 P_____P__PP_P_ SH041965 -17.4374 142.843 47 0 -17.6735 142.962 996 -17.4374 142.843 TC 47 -17.5782 142.776 2 47 -17.5177 142.900 TC 37 995 12 97
1964336S10135 1965 114 SP EA FLORA 1964-12-05 23:00:00 TS -17.5553 143.292 996 bom main 0 0 P_____O__PP_P_ SH041965 -17.4069 143.214 42 0 -17.7000 143.500 996 -17.4069 143.214 TC 42 -17.5864 143.128 2 43 -17.6620 143.309 TC 35 995 11 93
1964336S10135 1965 114 SP EA FLORA 1964-12-06 00:00:00 TS -17.5540 143.473 main 0 0 O_____P__OP_O_ jtwc_sh SH041965 -17.4000 143.400 40 0 -17.6512 143.631 996 -17.4000 143.400 TC 40 -17.5728 143.309 2 41 -17.7000 143.500 TC 35 996 10 88
1964336S10135 1965 114 SP EA FLORA 1964-12-06 02:00:00 TS -17.5385 143.796 998 bom main 0 0 P_____O__PP_P_ SH041965 -17.4395 143.734 36 0 -17.5000 143.800 998 -17.4395 143.734 TC 36 -17.5318 143.687 2 37 -17.6664 143.797 TC 35 996 9 88
1964336S10135 1965 114 SP EA FLORA 1964-12-06 03:00:00 TS -17.5340 143.968 main 0 0 P_____P__PP_P_ SH041965 -17.4694 143.905 35 0 -17.4579 143.943 997 -17.4694 143.905 TC 35 -17.5129 143.884 2 35 -17.6219 143.936 TC 35 996 10 90
1964336S10135 1965 114 SP EA FLORA 1964-12-06 05:00:00 TS -17.5415 144.344 main 0 0 P_____P__PO_P_ SH041965 -17.5496 144.283 31 -1 -17.4235 144.304 997 -17.5496 144.283 TC 31 -17.5000 144.300 1 31 -17.5285 144.230 TC 35 996 11 93
1964336S10135 1965 114 SP EA FLORA 1964-12-06 06:00:00 TS -17.5651 144.557 main 0 0 O_____P__OP_O_ jtwc_sh SH041965 -17.6000 144.500 30 -1 -17.4317 144.518 996 -17.6000 144.500 TC 30 -17.5520 144.544 1 32 -17.5000 144.400 TC 35 997 14 99
1964336S10135 1965 114 SP EA FLORA 1964-12-06 08:00:00 TS -17.6454 145.049 996 bom main 0 0 P_____O__PP_P_ SH041965 -17.7235 145.046 33 -1 -17.5000 145.000 996 -17.7235 145.046 TC 33 -17.6748 145.060 1 34 -17.5244 144.838 TC 35 996 15 100
1964336S10135 1965 114 SP EA FLORA 1964-12-06 09:00:00 TS -17.6968 145.311 main 0 0 P_____P__PP_P_ SH041965 -17.7931 145.342 35 0 -17.5579 145.267 996 -17.7931 145.342 TC 35 -17.7431 145.327 1 35 -17.5553 145.077 TC 35 996 15 103
1964336S10135 1965 114 SP EA FLORA 1964-12-06 12:00:00 TS -17.8769 146.088 996 bom main 10 10 O_____O__OP_O_ jtwc_sh SH041965 -18.0000 146.200 40 0 -17.8000 146.100 996 -18.0000 146.200 TC 40 -17.9612 146.131 1 38 -17.7000 145.800 TC 35 996 14 105
1964336S10135 1965 114 SP EA FLORA 1964-12-06 15:00:00 TS -18.0555 146.743 main 69 69 P_____P__PP_P_ SH041965 -18.1572 146.875 42 0 -18.0122 146.750 996 -18.1572 146.875 TC 42 -18.1750 146.875 1 41 -17.8849 146.437 TC 35 996 12 107
1964336S10135 1965 114 SP EA FLORA 1964-12-06 17:00:00 TS -18.1739 147.114 main 95 95 P_____P__PO_P_ SH041965 -18.2525 147.242 44 0 -18.1458 147.100 996 -18.2525 147.242 TC 44 -18.3000 147.300 2 44 -18.0280 146.822 TC 35 996 11 109
1964336S10135 1965 114 SP EA FLORA 1964-12-06 18:00:00 TS -18.2307 147.277 main 114 113 O_____P__OP_O_ jtwc_sh SH041965 -18.3000 147.400 45 0 -18.2101 147.255 996 -18.3000 147.400 TC 45 -18.3473 147.468 2 43 -18.1000 147.000 TC 35 996 9 112
1964336S10135 1965 114 SP EA FLORA 1964-12-06 21:00:00 TS -18.4024 147.702 main 116 109 P_____P__PP_P_ SH041965 -18.4647 147.795 42 0 -18.3908 147.660 996 -18.4647 147.795 TC 42 -18.4684 147.879 2 41 -18.3073 147.488 TC 35 996 8 114
1964336S10135 1965 114 SP EA FLORA 1964-12-06 23:00:00 TS -18.5065 147.939 996 bom main 113 113 P_____O__PP_P_ SH041965 -18.5613 148.002 40 0 -18.5000 147.900 996 -18.5613 148.002 TC 40 -18.5355 148.093 2 40 -18.4390 147.769 TC 35 996 7 114
1964336S10135 1965 114 SP EA FLORA 1964-12-07 00:00:00 TS -18.5534 148.054 main 115 115 O_____P__OP_O_ jtwc_sh SH041965 -18.6000 148.100 40 0 -18.5543 148.037 996 -18.6000 148.100 TC 40 -18.5659 148.188 2 39 -18.5000 147.900 TC 35 996 7 110
1964336S10135 1965 114 SP EA FLORA 1964-12-07 03:00:00 TS -18.6639 148.390 main 130 130 P_____P__PP_P_ SH041965 -18.6574 148.415 37 0 -18.7039 148.410 996 -18.6574 148.415 TC 37 -18.6487 148.440 2 38 -18.6649 148.273 TC 35 996 6 109
1964336S10135 1965 114 SP EA FLORA 1964-12-07 05:00:00 TS -18.7267 148.593 main 146 140 P_____P__PO_P_ SH041965 -18.6828 148.608 35 0 -18.7924 148.632 997 -18.6828 148.608 TC 35 -18.7000 148.600 2 37 -18.7583 148.494 TC 35 996 6 108
1964336S10135 1965 114 SP EA FLORA 1964-12-07 06:00:00 TS -18.7581 148.693 main 140 138 O_____P__OP_O_ jtwc_sh SH041965 -18.7000 148.700 35 0 -18.8331 148.736 997 -18.7000 148.700 TC 35 -18.7283 148.698 2 37 -18.8000 148.600 TC 35 997 6 110
1964336S10135 1965 114 SP EA FLORA 1964-12-07 09:00:00 TS -18.8612 148.975 main 143 143 P_____P__PP_P_ SH041965 -18.7999 148.950 37 0 -18.9407 149.024 997 -18.7999 148.950 TC 37 -18.8076 148.983 2 39 -18.9149 148.915 TC 35 997 6 111
1964336S10135 1965 114 SP EA FLORA 1964-12-07 11:00:00 TS -18.9237 149.152 998 bom main 155 155 P_____O__PP_P_ SH041965 -18.8697 149.114 39 0 -19.0000 149.200 998 -18.8697 149.114 TC 39 -18.8572 149.165 2 40 -18.9750 149.108 TC 35 997 5 110
1964336S10135 1965 114 SP EA FLORA 1964-12-07 12:00:00 TS -18.9507 149.239 main 146 146 O_____P__OP_O_ jtwc_sh SH041965 -18.9000 149.200 40 0 -19.0228 149.281 998 -18.9000 149.200 TC 40 -18.8813 149.255 2 41 -19.0000 149.200 TC 35 998 5 104
1964336S10135 1965 114 SP EA FLORA 1964-12-07 15:00:00 TS -19.0070 149.503 main 162 162 P_____P__PP_P_ SH041965 -18.9500 149.500 42 0 -19.0734 149.500 998 -18.9500 149.500 TC 42 -18.9525 149.522 2 42 -19.0575 149.465 TC 32 998 5 102
1964336S10135 1965 114 SP EA FLORA 1964-12-07 17:00:00 TS -19.0387 149.672 main 173 163 P_____P__PO_P_ SH041965 -18.9803 149.703 44 0 -19.0992 149.636 999 -18.9803 149.703 TC 44 -19.0000 149.700 2 44 -19.0859 149.625 TC 30 998 5 102
1964336S10135 1965 114 SP EA FLORA 1964-12-07 18:00:00 TS -19.0560 149.755 main 170 170 O_____P__OP_O_ jtwc_sh SH041965 -19.0000 149.800 45 0 -19.1119 149.704 999 -19.0000 149.800 TC 45 -19.0249 149.789 2 43 -19.1000 149.700 TC 30 999 5 106
1964336S10135 1965 114 SP EA FLORA 1964-12-07 21:00:00 TS -19.1219 149.985 main 183 183 P_____P__PP_P_ SH041965 -19.0999 150.050 42 0 -19.1570 149.927 999 -19.0999 150.050 TC 42 -19.0997 150.056 2 41 -19.1348 149.878 TC 30 999 5 107
1964336S10135 1965 114 SP EA FLORA 1964-12-07 23:00:00 TS -19.1729 150.148 1000 bom main 183 183 P_____O__PP_P_ SH041965 -19.1697 150.214 40 0 -19.2000 150.100 1000 -19.1697 150.214 TC 40 -19.1497 150.235 2 40 -19.1718 150.013 TC 30 999 5 108
1964336S10135 1965 114 SP EA FLORA 1964-12-08 00:00:00 TS -19.2015 150.239 main 191 191 O_____P__OP_O_ jtwc_sh SH041965 -19.2000 150.300 40 0 -19.2342 150.208 1000 -19.2000 150.300 TC 40 -19.1747 150.326 2 39 -19.2000 150.100 TC 30 1000 6 107
1964336S10135 1965 114 SP EA FLORA 1964-12-08 03:00:00 TS -19.2899 150.558 main 219 219 P_____P__PP_P_ SH041965 -19.2500 150.593 37 0 -19.3542 150.568 1000 -19.2500 150.593 TC 37 -19.2498 150.605 2 38 -19.3426 150.477 TC 27 1000 7 106
1964336S10135 1965 114 SP EA FLORA 1964-12-08 05:00:00 TS -19.3541 150.789 main 232 232 P_____P__PO_P_ SH041965 -19.2802 150.797 35 0 -19.4429 150.827 1001 -19.2802 150.797 TC 35 -19.3000 150.800 2 37 -19.4505 150.762 TC 25 1000 7 107
1964336S10135 1965 114 SP EA FLORA 1964-12-08 06:00:00 TS -19.3878 150.906 main 241 241 O_____P__OP_O_ jtwc_sh SH041965 -19.3000 150.900 35 0 -19.4882 150.959 1001 -19.3000 150.900 TC 35 -19.3251 150.900 2 36 -19.5000 150.900 TC 25 1001 7 108
1964336S10135 1965 114 SP EA FLORA 1964-12-08 09:00:00 TS -19.4998 151.256 main 274 274 P_____P__PP_P_ SH041965 -19.3876 151.202 32 -1 -19.6204 151.351 1001 -19.3876 151.202 TC 32 -19.4005 151.213 2 33 -19.6074 151.265 TC 25 1001 7 109
1964336S10135 1965 114 SP EA FLORA 1964-12-08 11:00:00 TS -19.5792 151.489 1002 bom main 289 289 P_____O__PP_P_ SH041965 -19.4613 151.401 30 -1 -19.7000 151.600 1002 -19.4613 151.401 TC 30 -19.4506 151.430 2 31 -19.6693 151.492 TC 25 1001 7 112
1964336S10135 1965 114 SP EA FLORA 1964-12-08 12:00:00 TS -19.6335 151.614 main 299 299 O_____P__OP_O_ jtwc_sh SH041965 -19.5000 151.500 30 -1 -19.7357 151.718 1002 -19.5000 151.500 TC 30 -19.4756 151.540 2 30 -19.7000 151.600 TC 25 1002 7 113
1964336S10135 1965 114 SP EA FLORA 1964-12-08 15:00:00 TS -19.7639 151.956 main 320 320 ______P___P_P_ SH041965 -1 -19.8270 152.045 1002 TC -19.5504 151.874 2 27 -19.8074 151.908 TC 25 1002 7 112
1964336S10135 1965 114 SP EA FLORA 1964-12-08 17:00:00 TS -19.8443 152.166 main 329 319 ______P___O_P_ SH041965 -1 -19.8774 152.245 1003 TC -19.6000 152.100 1 25 -19.8723 152.103 TC 25 1002 6 115
1964336S10135 1965 114 SP EA FLORA 1964-12-08 18:00:00 TS -19.9001 152.261 main 325 325 ______P_____O_ -1 -19.9002 152.342 1003 1 -19.9000 152.200 TC 25 1003 6 108
1964336S10135 1965 114 SP EA FLORA 1964-12-08 21:00:00 TS -19.9608 152.546 main 326 326 ______P_____P_ -1 -19.9619 152.620 1003 1 -19.9601 152.497 TC 22 1003 5 102
1964336S10135 1965 114 SP EA FLORA 1964-12-08 23:00:00 TS -19.9918 152.733 1004 bom main 339 339 ______O_____P_ -1 -20.0000 152.800 1004 1 -19.9877 152.699 TC 20 1003 5 99
1964336S10135 1965 114 SP EA FLORA 1964-12-09 00:00:00 TS -20.0000 152.800 main 345 ____________O_ -1 1 -20.0000 152.800 TC 20 1004 4 97

IBTrACS Databaseについて

本データベースは、米国NOAAが公開する1842年以降の世界の熱帯低気圧のベストトラックデータアーカイブInternational Best Track Archive for Climate Stewardship (IBTrACS)を、ウェブで閲覧しやすい形式に変換したものです。

最終更新日:2021-10-08